sensor_id;sensor_type;location;lat;lon;timestamp;P1;durP1;ratioP1;P2;durP2;ratioP2
4061;SDS011;2046;47.064;15.456;2022-12-20T00:00:07;14.93;;;8.93;;
4061;SDS011;2046;47.064;15.456;2022-12-20T00:02:34;15.02;;;9.30;;
4061;SDS011;2046;47.064;15.456;2022-12-20T00:05:01;17.23;;;9.43;;
4061;SDS011;2046;47.064;15.456;2022-12-20T00:07:28;17.75;;;9.27;;
4061;SDS011;2046;47.064;15.456;2022-12-20T00:09:54;16.42;;;9.00;;
4061;SDS011;2046;47.064;15.456;2022-12-20T00:12:21;17.13;;;9.55;;
4061;SDS011;2046;47.064;15.456;2022-12-20T00:14:47;15.57;;;8.93;;
4061;SDS011;2046;47.064;15.456;2022-12-20T00:17:14;17.30;;;9.50;;
4061;SDS011;2046;47.064;15.456;2022-12-20T00:19:44;14.45;;;8.20;;
4061;SDS011;2046;47.064;15.456;2022-12-20T00:22:11;15.98;;;9.27;;
4061;SDS011;2046;47.064;15.456;2022-12-20T00:24:38;14.55;;;9.35;;
4061;SDS011;2046;47.064;15.456;2022-12-20T00:27:05;17.25;;;9.25;;
4061;SDS011;2046;47.064;15.456;2022-12-20T00:29:32;14.02;;;9.02;;
4061;SDS011;2046;47.064;15.456;2022-12-20T00:31:58;13.63;;;8.23;;
4061;SDS011;2046;47.064;15.456;2022-12-20T00:34:25;14.57;;;8.73;;
4061;SDS011;2046;47.064;15.456;2022-12-20T00:36:52;15.57;;;8.93;;
4061;SDS011;2046;47.064;15.456;2022-12-20T00:39:18;16.75;;;9.43;;
4061;SDS011;2046;47.064;15.456;2022-12-20T00:41:45;18.80;;;9.85;;
4061;SDS011;2046;47.064;15.456;2022-12-20T00:44:11;15.93;;;9.18;;
4061;SDS011;2046;47.064;15.456;2022-12-20T00:46:38;16.77;;;9.57;;
4061;SDS011;2046;47.064;15.456;2022-12-20T00:49:05;18.52;;;9.75;;
4061;SDS011;2046;47.064;15.456;2022-12-20T00:51:32;15.07;;;8.65;;
4061;SDS011;2046;47.064;15.456;2022-12-20T00:53:59;14.73;;;9.38;;
4061;SDS011;2046;47.064;15.456;2022-12-20T00:56:25;16.70;;;9.60;;
4061;SDS011;2046;47.064;15.456;2022-12-20T00:58:52;15.27;;;9.45;;
4061;SDS011;2046;47.064;15.456;2022-12-20T01:01:23;15.40;;;9.38;;
4061;SDS011;2046;47.064;15.456;2022-12-20T01:03:51;18.23;;;9.32;;
4061;SDS011;2046;47.064;15.456;2022-12-20T01:06:19;17.05;;;9.48;;
4061;SDS011;2046;47.064;15.456;2022-12-20T01:08:46;21.08;;;10.48;;
4061;SDS011;2046;47.064;15.456;2022-12-20T01:11:18;15.93;;;9.25;;
4061;SDS011;2046;47.064;15.456;2022-12-20T01:13:46;20.67;;;9.82;;
4061;SDS011;2046;47.064;15.456;2022-12-20T01:16:14;20.10;;;9.40;;
4061;SDS011;2046;47.064;15.456;2022-12-20T01:18:41;19.75;;;10.50;;
4061;SDS011;2046;47.064;15.456;2022-12-20T01:21:09;18.65;;;9.65;;
4061;SDS011;2046;47.064;15.456;2022-12-20T01:23:36;18.20;;;9.65;;
4061;SDS011;2046;47.064;15.456;2022-12-20T01:26:03;18.05;;;9.13;;
4061;SDS011;2046;47.064;15.456;2022-12-20T01:28:30;19.77;;;9.55;;
4061;SDS011;2046;47.064;15.456;2022-12-20T01:30:57;21.58;;;9.95;;
4061;SDS011;2046;47.064;15.456;2022-12-20T01:33:24;18.65;;;9.52;;
4061;SDS011;2046;47.064;15.456;2022-12-20T01:35:57;18.45;;;9.93;;
4061;SDS011;2046;47.064;15.456;2022-12-20T01:38:25;19.23;;;10.40;;
4061;SDS011;2046;47.064;15.456;2022-12-20T01:40:52;14.40;;;7.82;;
4061;SDS011;2046;47.064;15.456;2022-12-20T01:43:20;19.17;;;9.57;;
4061;SDS011;2046;47.064;15.456;2022-12-20T01:45:47;18.60;;;9.55;;
4061;SDS011;2046;47.064;15.456;2022-12-20T01:48:15;18.48;;;9.93;;
4061;SDS011;2046;47.064;15.456;2022-12-20T01:50:42;20.25;;;10.82;;
4061;SDS011;2046;47.064;15.456;2022-12-20T01:53:08;20.27;;;10.57;;
4061;SDS011;2046;47.064;15.456;2022-12-20T01:55:36;18.27;;;10.43;;
4061;SDS011;2046;47.064;15.456;2022-12-20T01:58:07;21.05;;;10.90;;
4061;SDS011;2046;47.064;15.456;2022-12-20T02:00:34;21.13;;;10.63;;
4061;SDS011;2046;47.064;15.456;2022-12-20T02:03:06;17.80;;;9.27;;
4061;SDS011;2046;47.064;15.456;2022-12-20T02:05:37;19.65;;;10.20;;
4061;SDS011;2046;47.064;15.456;2022-12-20T02:08:04;20.90;;;10.65;;
4061;SDS011;2046;47.064;15.456;2022-12-20T02:10:39;22.85;;;11.18;;
4061;SDS011;2046;47.064;15.456;2022-12-20T02:13:11;19.60;;;10.32;;
4061;SDS011;2046;47.064;15.456;2022-12-20T02:15:55;18.33;;;9.82;;
4061;SDS011;2046;47.064;15.456;2022-12-20T02:31:23;20.83;;;10.32;;
4061;SDS011;2046;47.064;15.456;2022-12-20T02:33:51;22.80;;;11.10;;
4061;SDS011;2046;47.064;15.456;2022-12-20T02:36:20;21.67;;;10.73;;
4061;SDS011;2046;47.064;15.456;2022-12-20T02:38:47;19.17;;;10.13;;
4061;SDS011;2046;47.064;15.456;2022-12-20T02:41:23;21.35;;;11.07;;
4061;SDS011;2046;47.064;15.456;2022-12-20T02:43:54;19.25;;;11.07;;
4061;SDS011;2046;47.064;15.456;2022-12-20T02:46:40;20.73;;;10.50;;
4061;SDS011;2046;47.064;15.456;2022-12-20T02:49:09;20.17;;;10.52;;
4061;SDS011;2046;47.064;15.456;2022-12-20T02:51:37;22.63;;;11.00;;
4061;SDS011;2046;47.064;15.456;2022-12-20T02:54:04;21.80;;;11.48;;
4061;SDS011;2046;47.064;15.456;2022-12-20T03:01:54;18.92;;;9.88;;
4061;SDS011;2046;47.064;15.456;2022-12-20T03:04:28;20.63;;;10.38;;
4061;SDS011;2046;47.064;15.456;2022-12-20T03:09:22;19.42;;;10.00;;
4061;SDS011;2046;47.064;15.456;2022-12-20T03:11:49;20.75;;;11.05;;
4061;SDS011;2046;47.064;15.456;2022-12-20T03:14:16;21.33;;;10.65;;
4061;SDS011;2046;47.064;15.456;2022-12-20T03:16:42;20.63;;;10.48;;
4061;SDS011;2046;47.064;15.456;2022-12-20T03:19:09;17.80;;;9.95;;
4061;SDS011;2046;47.064;15.456;2022-12-20T03:21:35;19.73;;;10.70;;
4061;SDS011;2046;47.064;15.456;2022-12-20T03:24:02;18.52;;;10.43;;
4061;SDS011;2046;47.064;15.456;2022-12-20T03:26:29;19.50;;;10.00;;
4061;SDS011;2046;47.064;15.456;2022-12-20T03:28:55;19.77;;;9.98;;
4061;SDS011;2046;47.064;15.456;2022-12-20T03:31:22;20.23;;;10.02;;
4061;SDS011;2046;47.064;15.456;2022-12-20T03:33:48;16.92;;;8.27;;
4061;SDS011;2046;47.064;15.456;2022-12-20T03:36:15;19.23;;;10.18;;
4061;SDS011;2046;47.064;15.456;2022-12-20T03:38:41;18.05;;;10.50;;
4061;SDS011;2046;47.064;15.456;2022-12-20T03:41:08;20.25;;;10.35;;
4061;SDS011;2046;47.064;15.456;2022-12-20T03:43:35;19.23;;;9.70;;
4061;SDS011;2046;47.064;15.456;2022-12-20T03:46:01;20.10;;;10.70;;
4061;SDS011;2046;47.064;15.456;2022-12-20T03:48:28;20.20;;;11.30;;
4061;SDS011;2046;47.064;15.456;2022-12-20T03:50:55;18.02;;;10.20;;
4061;SDS011;2046;47.064;15.456;2022-12-20T03:53:21;16.13;;;9.85;;
4061;SDS011;2046;47.064;15.456;2022-12-20T03:55:48;20.23;;;10.57;;
4061;SDS011;2046;47.064;15.456;2022-12-20T03:58:14;19.23;;;9.50;;
4061;SDS011;2046;47.064;15.456;2022-12-20T04:00:41;21.17;;;10.55;;
4061;SDS011;2046;47.064;15.456;2022-12-20T04:03:07;14.32;;;7.30;;
4061;SDS011;2046;47.064;15.456;2022-12-20T04:05:34;21.92;;;10.82;;
4061;SDS011;2046;47.064;15.456;2022-12-20T04:08:01;18.42;;;9.82;;
4061;SDS011;2046;47.064;15.456;2022-12-20T04:10:27;19.98;;;10.50;;
4061;SDS011;2046;47.064;15.456;2022-12-20T04:12:54;17.90;;;10.00;;
4061;SDS011;2046;47.064;15.456;2022-12-20T04:15:20;21.08;;;10.45;;
4061;SDS011;2046;47.064;15.456;2022-12-20T04:17:47;18.90;;;10.85;;
4061;SDS011;2046;47.064;15.456;2022-12-20T04:20:14;17.88;;;9.73;;
4061;SDS011;2046;47.064;15.456;2022-12-20T04:22:48;17.60;;;9.48;;
4061;SDS011;2046;47.064;15.456;2022-12-20T04:25:15;18.92;;;10.25;;
4061;SDS011;2046;47.064;15.456;2022-12-20T04:27:42;20.63;;;10.13;;
4061;SDS011;2046;47.064;15.456;2022-12-20T04:30:09;19.42;;;10.25;;
4061;SDS011;2046;47.064;15.456;2022-12-20T04:32:35;19.08;;;9.90;;
4061;SDS011;2046;47.064;15.456;2022-12-20T04:35:02;17.08;;;9.48;;
4061;SDS011;2046;47.064;15.456;2022-12-20T04:37:29;17.70;;;10.05;;
4061;SDS011;2046;47.064;15.456;2022-12-20T04:39:56;18.52;;;9.45;;
4061;SDS011;2046;47.064;15.456;2022-12-20T04:42:24;19.20;;;10.02;;
4061;SDS011;2046;47.064;15.456;2022-12-20T04:44:50;21.95;;;10.77;;
4061;SDS011;2046;47.064;15.456;2022-12-20T04:47:17;20.27;;;9.88;;
4061;SDS011;2046;47.064;15.456;2022-12-20T04:49:43;18.92;;;9.68;;
4061;SDS011;2046;47.064;15.456;2022-12-20T04:52:10;16.90;;;9.00;;
4061;SDS011;2046;47.064;15.456;2022-12-20T04:54:55;19.73;;;9.68;;
4061;SDS011;2046;47.064;15.456;2022-12-20T04:57:22;17.48;;;9.90;;
4061;SDS011;2046;47.064;15.456;2022-12-20T04:59:48;21.05;;;10.43;;
4061;SDS011;2046;47.064;15.456;2022-12-20T05:02:15;18.00;;;9.30;;
4061;SDS011;2046;47.064;15.456;2022-12-20T05:04:42;17.70;;;9.68;;
4061;SDS011;2046;47.064;15.456;2022-12-20T05:07:08;20.20;;;10.23;;
4061;SDS011;2046;47.064;15.456;2022-12-20T05:09:35;18.75;;;9.93;;
4061;SDS011;2046;47.064;15.456;2022-12-20T05:12:02;18.33;;;10.20;;
4061;SDS011;2046;47.064;15.456;2022-12-20T05:14:28;18.75;;;9.60;;
4061;SDS011;2046;47.064;15.456;2022-12-20T05:16:55;19.25;;;10.15;;
4061;SDS011;2046;47.064;15.456;2022-12-20T05:19:21;21.10;;;10.45;;
4061;SDS011;2046;47.064;15.456;2022-12-20T05:21:48;20.65;;;10.30;;
4061;SDS011;2046;47.064;15.456;2022-12-20T05:24:33;19.05;;;10.32;;
4061;SDS011;2046;47.064;15.456;2022-12-20T05:27:18;18.60;;;10.23;;
4061;SDS011;2046;47.064;15.456;2022-12-20T05:29:45;18.95;;;10.60;;
4061;SDS011;2046;47.064;15.456;2022-12-20T05:32:11;19.27;;;10.30;;
4061;SDS011;2046;47.064;15.456;2022-12-20T05:34:38;21.13;;;10.10;;
4061;SDS011;2046;47.064;15.456;2022-12-20T05:37:04;19.85;;;10.13;;
4061;SDS011;2046;47.064;15.456;2022-12-20T05:39:32;20.52;;;10.38;;
4061;SDS011;2046;47.064;15.456;2022-12-20T05:41:59;17.80;;;9.55;;
4061;SDS011;2046;47.064;15.456;2022-12-20T05:44:26;18.48;;;10.10;;
4061;SDS011;2046;47.064;15.456;2022-12-20T05:46:53;18.10;;;9.93;;
4061;SDS011;2046;47.064;15.456;2022-12-20T05:49:19;20.25;;;10.55;;
4061;SDS011;2046;47.064;15.456;2022-12-20T05:51:46;19.45;;;10.13;;
4061;SDS011;2046;47.064;15.456;2022-12-20T05:54:12;19.25;;;9.43;;
4061;SDS011;2046;47.064;15.456;2022-12-20T05:56:39;18.38;;;10.07;;
4061;SDS011;2046;47.064;15.456;2022-12-20T05:59:06;18.60;;;10.18;;
4061;SDS011;2046;47.064;15.456;2022-12-20T06:01:32;20.67;;;10.00;;
4061;SDS011;2046;47.064;15.456;2022-12-20T06:03:59;21.05;;;9.85;;
4061;SDS011;2046;47.064;15.456;2022-12-20T06:06:26;18.40;;;9.68;;
4061;SDS011;2046;47.064;15.456;2022-12-20T06:08:52;18.73;;;10.02;;
4061;SDS011;2046;47.064;15.456;2022-12-20T06:11:19;21.65;;;10.52;;
4061;SDS011;2046;47.064;15.456;2022-12-20T06:13:54;19.92;;;9.98;;
4061;SDS011;2046;47.064;15.456;2022-12-20T06:16:21;21.05;;;10.48;;
4061;SDS011;2046;47.064;15.456;2022-12-20T06:18:48;20.00;;;10.57;;
4061;SDS011;2046;47.064;15.456;2022-12-20T06:21:15;19.55;;;10.35;;
4061;SDS011;2046;47.064;15.456;2022-12-20T06:23:42;19.35;;;10.23;;
4061;SDS011;2046;47.064;15.456;2022-12-20T06:26:08;21.02;;;10.88;;
4061;SDS011;2046;47.064;15.456;2022-12-20T06:28:35;19.77;;;10.40;;
4061;SDS011;2046;47.064;15.456;2022-12-20T06:31:08;21.70;;;10.80;;
4061;SDS011;2046;47.064;15.456;2022-12-20T06:33:35;15.23;;;7.80;;
4061;SDS011;2046;47.064;15.456;2022-12-20T06:36:02;20.70;;;11.00;;
4061;SDS011;2046;47.064;15.456;2022-12-20T06:38:30;17.80;;;9.85;;
4061;SDS011;2046;47.064;15.456;2022-12-20T06:40:56;21.02;;;10.32;;
4061;SDS011;2046;47.064;15.456;2022-12-20T06:43:23;18.50;;;10.43;;
4061;SDS011;2046;47.064;15.456;2022-12-20T06:45:49;21.58;;;10.43;;
4061;SDS011;2046;47.064;15.456;2022-12-20T06:48:16;19.50;;;10.50;;
4061;SDS011;2046;47.064;15.456;2022-12-20T06:50:42;20.13;;;10.60;;
4061;SDS011;2046;47.064;15.456;2022-12-20T06:53:09;24.40;;;11.25;;
4061;SDS011;2046;47.064;15.456;2022-12-20T06:55:35;21.02;;;11.05;;
4061;SDS011;2046;47.064;15.456;2022-12-20T06:58:02;20.67;;;10.30;;
4061;SDS011;2046;47.064;15.456;2022-12-20T07:00:29;20.33;;;10.52;;
4061;SDS011;2046;47.064;15.456;2022-12-20T07:02:56;21.65;;;10.98;;
4061;SDS011;2046;47.064;15.456;2022-12-20T07:05:22;19.40;;;10.57;;
4061;SDS011;2046;47.064;15.456;2022-12-20T07:07:49;23.25;;;11.35;;
4061;SDS011;2046;47.064;15.456;2022-12-20T07:10:15;20.25;;;10.63;;
4061;SDS011;2046;47.064;15.456;2022-12-20T07:12:42;20.95;;;11.43;;
4061;SDS011;2046;47.064;15.456;2022-12-20T07:15:13;22.25;;;10.93;;
4061;SDS011;2046;47.064;15.456;2022-12-20T07:17:40;22.63;;;11.18;;
4061;SDS011;2046;47.064;15.456;2022-12-20T07:20:07;21.75;;;10.82;;
4061;SDS011;2046;47.064;15.456;2022-12-20T07:22:39;22.95;;;10.82;;
4061;SDS011;2046;47.064;15.456;2022-12-20T07:25:06;21.52;;;10.40;;
4061;SDS011;2046;47.064;15.456;2022-12-20T07:27:32;22.50;;;11.68;;
4061;SDS011;2046;47.064;15.456;2022-12-20T07:29:59;19.33;;;10.20;;
4061;SDS011;2046;47.064;15.456;2022-12-20T07:32:26;20.52;;;11.00;;
4061;SDS011;2046;47.064;15.456;2022-12-20T07:34:52;20.65;;;10.77;;
4061;SDS011;2046;47.064;15.456;2022-12-20T07:37:19;24.85;;;11.35;;
4061;SDS011;2046;47.064;15.456;2022-12-20T07:39:45;19.73;;;10.88;;
4061;SDS011;2046;47.064;15.456;2022-12-20T07:42:12;20.00;;;10.70;;
4061;SDS011;2046;47.064;15.456;2022-12-20T07:44:39;22.58;;;10.95;;
4061;SDS011;2046;47.064;15.456;2022-12-20T07:47:06;21.70;;;10.80;;
4061;SDS011;2046;47.064;15.456;2022-12-20T07:49:33;21.08;;;10.65;;
4061;SDS011;2046;47.064;15.456;2022-12-20T07:52:00;21.27;;;11.43;;
4061;SDS011;2046;47.064;15.456;2022-12-20T07:54:29;24.05;;;11.57;;
4061;SDS011;2046;47.064;15.456;2022-12-20T07:56:57;24.30;;;11.68;;
4061;SDS011;2046;47.064;15.456;2022-12-20T07:59:25;25.05;;;12.02;;
4061;SDS011;2046;47.064;15.456;2022-12-20T08:01:54;22.17;;;10.85;;
4061;SDS011;2046;47.064;15.456;2022-12-20T08:04:29;22.30;;;11.25;;
4061;SDS011;2046;47.064;15.456;2022-12-20T08:06:56;20.88;;;11.02;;
4061;SDS011;2046;47.064;15.456;2022-12-20T08:09:23;22.45;;;11.10;;
4061;SDS011;2046;47.064;15.456;2022-12-20T08:11:50;23.48;;;11.02;;
4061;SDS011;2046;47.064;15.456;2022-12-20T08:14:17;21.13;;;11.35;;
4061;SDS011;2046;47.064;15.456;2022-12-20T08:16:44;20.17;;;11.07;;
4061;SDS011;2046;47.064;15.456;2022-12-20T08:19:11;20.17;;;10.45;;
4061;SDS011;2046;47.064;15.456;2022-12-20T08:21:38;21.58;;;11.18;;
4061;SDS011;2046;47.064;15.456;2022-12-20T08:24:04;22.40;;;10.80;;
4061;SDS011;2046;47.064;15.456;2022-12-20T08:26:35;21.25;;;11.23;;
4061;SDS011;2046;47.064;15.456;2022-12-20T08:29:02;22.15;;;10.95;;
4061;SDS011;2046;47.064;15.456;2022-12-20T08:31:28;20.40;;;10.82;;
4061;SDS011;2046;47.064;15.456;2022-12-20T08:33:55;21.48;;;11.30;;
4061;SDS011;2046;47.064;15.456;2022-12-20T08:36:21;23.88;;;11.55;;
4061;SDS011;2046;47.064;15.456;2022-12-20T08:38:48;22.77;;;11.68;;
4061;SDS011;2046;47.064;15.456;2022-12-20T08:41:14;21.20;;;10.82;;
4061;SDS011;2046;47.064;15.456;2022-12-20T08:43:41;23.17;;;12.05;;
4061;SDS011;2046;47.064;15.456;2022-12-20T08:46:08;24.30;;;11.18;;
4061;SDS011;2046;47.064;15.456;2022-12-20T08:48:35;22.50;;;11.10;;
4061;SDS011;2046;47.064;15.456;2022-12-20T08:51:03;20.98;;;10.75;;
4061;SDS011;2046;47.064;15.456;2022-12-20T08:53:31;22.65;;;11.45;;
4061;SDS011;2046;47.064;15.456;2022-12-20T08:56:18;22.45;;;11.23;;
4061;SDS011;2046;47.064;15.456;2022-12-20T08:58:45;19.50;;;9.05;;
4061;SDS011;2046;47.064;15.456;2022-12-20T09:01:13;22.45;;;12.45;;
4061;SDS011;2046;47.064;15.456;2022-12-20T09:03:40;23.38;;;12.10;;
4061;SDS011;2046;47.064;15.456;2022-12-20T09:06:08;22.17;;;11.88;;
4061;SDS011;2046;47.064;15.456;2022-12-20T09:08:36;23.42;;;12.25;;
4061;SDS011;2046;47.064;15.456;2022-12-20T09:11:13;22.08;;;10.63;;
4061;SDS011;2046;47.064;15.456;2022-12-20T09:13:41;26.10;;;12.60;;
4061;SDS011;2046;47.064;15.456;2022-12-20T09:16:10;24.75;;;11.45;;
4061;SDS011;2046;47.064;15.456;2022-12-20T09:18:37;25.67;;;11.68;;
4061;SDS011;2046;47.064;15.456;2022-12-20T09:21:04;22.73;;;11.30;;
4061;SDS011;2046;47.064;15.456;2022-12-20T09:23:32;23.30;;;11.32;;
4061;SDS011;2046;47.064;15.456;2022-12-20T09:26:02;23.23;;;11.30;;
4061;SDS011;2046;47.064;15.456;2022-12-20T09:28:29;21.00;;;11.25;;
4061;SDS011;2046;47.064;15.456;2022-12-20T09:30:57;22.90;;;11.57;;
4061;SDS011;2046;47.064;15.456;2022-12-20T09:33:24;23.63;;;11.55;;
4061;SDS011;2046;47.064;15.456;2022-12-20T09:35:50;23.17;;;11.70;;
4061;SDS011;2046;47.064;15.456;2022-12-20T09:38:16;26.52;;;11.93;;
4061;SDS011;2046;47.064;15.456;2022-12-20T09:40:44;23.13;;;11.25;;
4061;SDS011;2046;47.064;15.456;2022-12-20T09:43:11;25.92;;;11.70;;
4061;SDS011;2046;47.064;15.456;2022-12-20T09:45:38;25.67;;;11.50;;
4061;SDS011;2046;47.064;15.456;2022-12-20T09:48:05;23.60;;;11.25;;
4061;SDS011;2046;47.064;15.456;2022-12-20T09:50:57;22.70;;;10.60;;
4061;SDS011;2046;47.064;15.456;2022-12-20T09:55:55;24.65;;;12.10;;
4061;SDS011;2046;47.064;15.456;2022-12-20T09:58:34;24.20;;;11.38;;
4061;SDS011;2046;47.064;15.456;2022-12-20T10:01:10;24.17;;;11.65;;
4061;SDS011;2046;47.064;15.456;2022-12-20T10:03:40;24.48;;;11.68;;
4061;SDS011;2046;47.064;15.456;2022-12-20T10:06:09;21.63;;;10.95;;
4061;SDS011;2046;47.064;15.456;2022-12-20T10:08:49;23.20;;;11.25;;
4061;SDS011;2046;47.064;15.456;2022-12-20T10:21:42;23.23;;;11.48;;
4061;SDS011;2046;47.064;15.456;2022-12-20T10:24:16;21.83;;;10.82;;
4061;SDS011;2046;47.064;15.456;2022-12-20T10:26:43;20.40;;;10.30;;
4061;SDS011;2046;47.064;15.456;2022-12-20T10:29:11;21.05;;;10.82;;
4061;SDS011;2046;47.064;15.456;2022-12-20T10:31:37;22.23;;;11.25;;
4061;SDS011;2046;47.064;15.456;2022-12-20T10:34:04;24.38;;;11.48;;
4061;SDS011;2046;47.064;15.456;2022-12-20T10:36:31;23.15;;;11.73;;
4061;SDS011;2046;47.064;15.456;2022-12-20T10:39:00;23.55;;;11.52;;
4061;SDS011;2046;47.064;15.456;2022-12-20T10:41:28;22.70;;;11.40;;
4061;SDS011;2046;47.064;15.456;2022-12-20T10:46:43;23.13;;;11.65;;
4061;SDS011;2046;47.064;15.456;2022-12-20T10:51:50;23.75;;;11.02;;
4061;SDS011;2046;47.064;15.456;2022-12-20T10:54:51;22.35;;;11.15;;
4061;SDS011;2046;47.064;15.456;2022-12-20T10:57:28;22.08;;;10.73;;
4061;SDS011;2046;47.064;15.456;2022-12-20T10:59:58;19.45;;;10.00;;
4061;SDS011;2046;47.064;15.456;2022-12-20T11:04:57;27.73;;;12.48;;
4061;SDS011;2046;47.064;15.456;2022-12-20T11:07:30;21.48;;;11.07;;
4061;SDS011;2046;47.064;15.456;2022-12-20T11:10:00;22.30;;;10.60;;
4061;SDS011;2046;47.064;15.456;2022-12-20T11:12:27;22.88;;;11.93;;
4061;SDS011;2046;47.064;15.456;2022-12-20T11:15:08;22.80;;;11.43;;
4061;SDS011;2046;47.064;15.456;2022-12-20T11:17:35;24.25;;;11.65;;
4061;SDS011;2046;47.064;15.456;2022-12-20T11:30:38;20.38;;;10.88;;
4061;SDS011;2046;47.064;15.456;2022-12-20T11:35:50;19.67;;;10.30;;
4061;SDS011;2046;47.064;15.456;2022-12-20T11:40:51;24.13;;;10.95;;
4061;SDS011;2046;47.064;15.456;2022-12-20T11:54:11;31.48;;;13.45;;
4061;SDS011;2046;47.064;15.456;2022-12-20T11:56:43;34.55;;;15.32;;
4061;SDS011;2046;47.064;15.456;2022-12-20T12:01:46;26.73;;;13.38;;
4061;SDS011;2046;47.064;15.456;2022-12-20T12:04:26;39.20;;;15.25;;
4061;SDS011;2046;47.064;15.456;2022-12-20T12:06:56;36.97;;;14.82;;
4061;SDS011;2046;47.064;15.456;2022-12-20T12:09:24;28.95;;;12.52;;
4061;SDS011;2046;47.064;15.456;2022-12-20T12:12:03;28.75;;;12.65;;
4061;SDS011;2046;47.064;15.456;2022-12-20T12:14:47;29.55;;;12.25;;
4061;SDS011;2046;47.064;15.456;2022-12-20T12:20:06;22.05;;;10.63;;
4061;SDS011;2046;47.064;15.456;2022-12-20T12:22:34;22.48;;;10.80;;
4061;SDS011;2046;47.064;15.456;2022-12-20T12:25:03;20.55;;;10.63;;
4061;SDS011;2046;47.064;15.456;2022-12-20T12:27:33;23.38;;;10.73;;
4061;SDS011;2046;47.064;15.456;2022-12-20T12:30:01;21.17;;;10.70;;
4061;SDS011;2046;47.064;15.456;2022-12-20T12:32:29;20.02;;;10.50;;
4061;SDS011;2046;47.064;15.456;2022-12-20T12:47:39;22.25;;;10.15;;
4061;SDS011;2046;47.064;15.456;2022-12-20T12:50:31;25.35;;;9.82;;
4061;SDS011;2046;47.064;15.456;2022-12-20T12:55:53;22.45;;;9.70;;
4061;SDS011;2046;47.064;15.456;2022-12-20T12:58:38;22.95;;;10.82;;
4061;SDS011;2046;47.064;15.456;2022-12-20T13:01:13;19.30;;;9.93;;
4061;SDS011;2046;47.064;15.456;2022-12-20T13:11:33;20.88;;;9.93;;
4061;SDS011;2046;47.064;15.456;2022-12-20T13:16:45;23.85;;;9.90;;
4061;SDS011;2046;47.064;15.456;2022-12-20T13:27:14;21.65;;;9.80;;
4061;SDS011;2046;47.064;15.456;2022-12-20T13:29:58;20.85;;;9.25;;
4061;SDS011;2046;47.064;15.456;2022-12-20T13:37:54;18.83;;;8.40;;
4061;SDS011;2046;47.064;15.456;2022-12-20T13:40:29;17.42;;;8.52;;
4061;SDS011;2046;47.064;15.456;2022-12-20T13:42:58;19.27;;;9.70;;
4061;SDS011;2046;47.064;15.456;2022-12-20T13:45:27;20.55;;;9.00;;
4061;SDS011;2046;47.064;15.456;2022-12-20T13:47:59;18.88;;;9.52;;
4061;SDS011;2046;47.064;15.456;2022-12-20T13:50:37;20.60;;;8.82;;
4061;SDS011;2046;47.064;15.456;2022-12-20T13:53:06;22.23;;;9.10;;
4061;SDS011;2046;47.064;15.456;2022-12-20T13:55:41;19.13;;;9.02;;
4061;SDS011;2046;47.064;15.456;2022-12-20T13:58:12;21.58;;;10.32;;
4061;SDS011;2046;47.064;15.456;2022-12-20T14:00:40;20.05;;;9.00;;
4061;SDS011;2046;47.064;15.456;2022-12-20T14:05:45;22.60;;;9.82;;
4061;SDS011;2046;47.064;15.456;2022-12-20T14:08:13;23.60;;;10.60;;
4061;SDS011;2046;47.064;15.456;2022-12-20T14:10:41;19.63;;;9.57;;
4061;SDS011;2046;47.064;15.456;2022-12-20T14:13:23;23.60;;;11.50;;
4061;SDS011;2046;47.064;15.456;2022-12-20T14:15:50;25.05;;;12.48;;
4061;SDS011;2046;47.064;15.456;2022-12-20T14:18:18;135.60;;;91.57;;
4061;SDS011;2046;47.064;15.456;2022-12-20T14:20:46;149.52;;;94.07;;
4061;SDS011;2046;47.064;15.456;2022-12-20T14:23:18;108.57;;;66.13;;
4061;SDS011;2046;47.064;15.456;2022-12-20T14:28:28;145.40;;;93.55;;
4061;SDS011;2046;47.064;15.456;2022-12-20T14:30:57;100.32;;;64.68;;
4061;SDS011;2046;47.064;15.456;2022-12-20T14:33:26;91.80;;;58.40;;
4061;SDS011;2046;47.064;15.456;2022-12-20T14:35:54;88.93;;;53.35;;
4061;SDS011;2046;47.064;15.456;2022-12-20T14:38:27;78.43;;;48.83;;
4061;SDS011;2046;47.064;15.456;2022-12-20T14:40:54;67.72;;;41.47;;
4061;SDS011;2046;47.064;15.456;2022-12-20T14:43:26;56.25;;;33.55;;
4061;SDS011;2046;47.064;15.456;2022-12-20T14:48:39;45.47;;;26.52;;
4061;SDS011;2046;47.064;15.456;2022-12-20T14:51:06;46.33;;;27.92;;
4061;SDS011;2046;47.064;15.456;2022-12-20T14:53:32;46.17;;;26.48;;
4061;SDS011;2046;47.064;15.456;2022-12-20T14:56:02;43.20;;;25.20;;
4061;SDS011;2046;47.064;15.456;2022-12-20T14:58:32;40.25;;;23.17;;
4061;SDS011;2046;47.064;15.456;2022-12-20T15:01:00;41.83;;;23.77;;
4061;SDS011;2046;47.064;15.456;2022-12-20T15:03:27;41.88;;;23.35;;
4061;SDS011;2046;47.064;15.456;2022-12-20T15:05:55;40.28;;;22.20;;
4061;SDS011;2046;47.064;15.456;2022-12-20T15:10:53;37.58;;;20.98;;
4061;SDS011;2046;47.064;15.456;2022-12-20T15:13:22;33.50;;;20.77;;
4061;SDS011;2046;47.064;15.456;2022-12-20T15:15:50;36.88;;;20.73;;
4061;SDS011;2046;47.064;15.456;2022-12-20T15:18:17;32.95;;;18.85;;
4061;SDS011;2046;47.064;15.456;2022-12-20T15:20:45;35.38;;;19.63;;
4061;SDS011;2046;47.064;15.456;2022-12-20T15:23:19;32.42;;;18.25;;
4061;SDS011;2046;47.064;15.456;2022-12-20T15:25:47;34.80;;;19.70;;
4061;SDS011;2046;47.064;15.456;2022-12-20T15:28:14;35.40;;;19.10;;
4061;SDS011;2046;47.064;15.456;2022-12-20T15:30:42;32.42;;;18.98;;
4061;SDS011;2046;47.064;15.456;2022-12-20T15:33:11;30.25;;;17.85;;
4061;SDS011;2046;47.064;15.456;2022-12-20T15:35:40;28.90;;;17.17;;
4061;SDS011;2046;47.064;15.456;2022-12-20T15:38:13;29.92;;;17.45;;
4061;SDS011;2046;47.064;15.456;2022-12-20T15:40:49;29.95;;;17.55;;
4061;SDS011;2046;47.064;15.456;2022-12-20T15:43:17;31.98;;;17.38;;
4061;SDS011;2046;47.064;15.456;2022-12-20T15:45:45;26.05;;;15.75;;
4061;SDS011;2046;47.064;15.456;2022-12-20T15:48:14;30.08;;;15.93;;
4061;SDS011;2046;47.064;15.456;2022-12-20T15:50:42;29.38;;;16.60;;
4061;SDS011;2046;47.064;15.456;2022-12-20T15:53:13;29.23;;;15.95;;
4061;SDS011;2046;47.064;15.456;2022-12-20T15:55:40;28.80;;;16.30;;
4061;SDS011;2046;47.064;15.456;2022-12-20T15:58:07;26.98;;;16.00;;
4061;SDS011;2046;47.064;15.456;2022-12-20T16:00:36;28.52;;;15.27;;
4061;SDS011;2046;47.064;15.456;2022-12-20T16:03:03;29.77;;;15.73;;
4061;SDS011;2046;47.064;15.456;2022-12-20T16:05:30;32.10;;;16.33;;
4061;SDS011;2046;47.064;15.456;2022-12-20T16:07:56;27.35;;;14.90;;
4061;SDS011;2046;47.064;15.456;2022-12-20T16:10:23;26.55;;;15.07;;
4061;SDS011;2046;47.064;15.456;2022-12-20T16:12:49;25.17;;;14.90;;
4061;SDS011;2046;47.064;15.456;2022-12-20T16:15:18;27.27;;;15.05;;
4061;SDS011;2046;47.064;15.456;2022-12-20T16:17:44;29.48;;;15.20;;
4061;SDS011;2046;47.064;15.456;2022-12-20T16:20:11;28.48;;;15.68;;
4061;SDS011;2046;47.064;15.456;2022-12-20T16:22:38;26.15;;;15.05;;
4061;SDS011;2046;47.064;15.456;2022-12-20T16:25:04;27.52;;;14.88;;
4061;SDS011;2046;47.064;15.456;2022-12-20T16:27:31;24.27;;;13.57;;
4061;SDS011;2046;47.064;15.456;2022-12-20T16:29:57;24.25;;;14.00;;
4061;SDS011;2046;47.064;15.456;2022-12-20T16:32:24;28.83;;;15.38;;
4061;SDS011;2046;47.064;15.456;2022-12-20T16:34:50;25.60;;;14.43;;
4061;SDS011;2046;47.064;15.456;2022-12-20T16:37:17;29.00;;;14.55;;
4061;SDS011;2046;47.064;15.456;2022-12-20T16:39:44;30.02;;;15.25;;
4061;SDS011;2046;47.064;15.456;2022-12-20T16:42:14;24.50;;;14.35;;
4061;SDS011;2046;47.064;15.456;2022-12-20T16:44:41;27.98;;;14.70;;
4061;SDS011;2046;47.064;15.456;2022-12-20T16:47:11;27.27;;;14.70;;
4061;SDS011;2046;47.064;15.456;2022-12-20T16:49:38;25.98;;;13.70;;